createdAt,value
2022-10-22T00:03:14.633Z,13.37
2022-10-22T00:08:19.306Z,12.82
2022-10-22T00:13:24.933Z,15.33
2022-10-22T00:25:22.254Z,13.02
2022-10-22T00:30:25.068Z,15.12
2022-10-22T00:35:30.321Z,15.30
2022-10-22T00:40:35.666Z,15.33
2022-10-22T00:45:41.976Z,15.28
2022-10-22T00:50:48.576Z,15.26
2022-10-22T00:55:56.425Z,14.77
2022-10-22T01:00:59.964Z,12.51
2022-10-22T01:06:06.050Z,12.72
2022-10-22T01:11:21.398Z,15.18
2022-10-22T01:16:34.279Z,14.36
2022-10-22T01:21:47.734Z,13.94
2022-10-22T01:27:11.838Z,13.60
2022-10-22T01:32:22.314Z,15.20
2022-10-22T01:37:29.897Z,14.43
2022-10-22T01:42:36.107Z,13.44
2022-10-22T01:47:55.091Z,15.15
2022-10-22T01:53:30.875Z,15.05
2022-10-22T01:58:43.796Z,13.44
2022-10-22T02:03:57.936Z,12.56
2022-10-22T02:09:05.120Z,14.08
2022-10-22T02:14:09.007Z,15.15
2022-10-22T02:19:21.187Z,13.91
2022-10-22T02:24:25.551Z,13.95
2022-10-22T02:29:34.917Z,14.19
2022-10-22T02:34:39.869Z,12.85
2022-10-22T02:39:43.022Z,14.17
2022-10-22T02:44:46.037Z,14.22
2022-10-22T02:49:50.163Z,14.87
2022-10-22T02:54:53.163Z,14.45
2022-10-22T02:59:56.170Z,13.19
2022-10-22T03:05:00.479Z,14.28
2022-10-22T03:10:03.576Z,13.91
2022-10-22T03:15:15.229Z,13.82
2022-10-22T03:20:19.592Z,13.82
2022-10-22T03:25:25.052Z,14.10
2022-10-22T03:30:28.843Z,14.13
2022-10-22T03:35:44.099Z,14.61
2022-10-22T03:40:48.181Z,15.01
2022-10-22T03:45:51.277Z,14.36
2022-10-22T03:50:55.667Z,14.12
2022-10-22T03:56:01.054Z,12.64
2022-10-22T04:01:06.536Z,12.62
2022-10-22T04:06:12.552Z,14.13
2022-10-22T04:11:20.671Z,12.55
2022-10-22T04:16:27.511Z,14.80
2022-10-22T04:21:37.042Z,14.86
2022-10-22T04:26:40.286Z,12.51
2022-10-22T04:31:44.631Z,14.93
2022-10-22T04:36:49.021Z,13.79
2022-10-22T04:41:51.784Z,14.44
2022-10-22T04:46:54.557Z,14.54
2022-10-22T04:51:59.066Z,14.77
2022-10-22T04:57:03.796Z,14.72
2022-10-22T05:02:06.805Z,14.69
2022-10-22T05:07:10.842Z,14.24
2022-10-22T05:12:13.668Z,13.37
2022-10-22T05:17:21.557Z,14.60
2022-10-22T05:22:25.733Z,14.64
2022-10-22T05:27:30.524Z,14.67
2022-10-22T05:32:35.573Z,14.23
2022-10-22T05:37:40.140Z,14.47
2022-10-22T05:42:43.298Z,12.79
2022-10-22T05:47:46.102Z,12.87
2022-10-22T05:52:50.258Z,13.54
2022-10-22T05:57:53.125Z,14.60
2022-10-22T06:02:56.063Z,14.48
2022-10-22T06:08:00.375Z,13.38
2022-10-22T06:13:07.190Z,13.78
2022-10-22T06:18:16.978Z,14.12
2022-10-22T06:23:21.039Z,14.53
2022-10-22T06:33:34.096Z,14.39
2022-10-22T06:38:39.343Z,13.75
2022-10-22T06:43:46.711Z,14.72
2022-10-22T06:48:51.176Z,13.76
2022-10-22T06:53:56.168Z,13.20
2022-10-22T06:59:00.190Z,14.97
2022-10-22T07:04:06.707Z,14.29
2022-10-22T07:09:11.209Z,13.71
2022-10-22T07:14:15.403Z,15.27
2022-10-22T07:19:18.303Z,15.30
2022-10-22T07:24:22.601Z,13.98
2022-10-22T07:29:25.396Z,14.09
2022-10-22T07:34:28.214Z,15.23
2022-10-22T07:39:36.607Z,15.09
2022-10-22T07:44:40.929Z,15.42
2022-10-22T07:49:45.721Z,14.27
2022-10-22T07:54:50.215Z,13.98
2022-10-22T07:59:53.558Z,13.16
2022-10-22T08:04:57.070Z,15.55
2022-10-22T08:10:01.545Z,14.14
2022-10-22T08:15:19.068Z,13.36
2022-10-22T08:20:22.371Z,14.41
2022-10-22T08:25:26.840Z,15.92
2022-10-22T08:30:29.809Z,15.28
2022-10-22T08:35:35.073Z,15.06
2022-10-22T08:40:41.393Z,15.57
2022-10-22T08:45:53.297Z,15.31
2022-10-22T08:50:58.677Z,15.24
2022-10-22T08:56:03.790Z,16.28
2022-10-22T09:01:12.923Z,16.27
2022-10-22T09:06:19.587Z,15.35
2022-10-22T09:11:31.787Z,14.57
2022-10-22T09:16:40.722Z,14.69
2022-10-22T09:21:56.850Z,16.54
2022-10-22T09:27:02.780Z,16.58
2022-10-22T09:32:05.951Z,16.67
2022-10-22T09:37:14.142Z,16.65
2022-10-22T09:42:23.823Z,14.63
2022-10-22T09:47:43.633Z,15.45
2022-10-22T09:53:00.813Z,16.62
2022-10-22T09:58:13.320Z,16.92
2022-10-22T10:03:40.319Z,15.62
2022-10-22T10:08:43.319Z,16.12
2022-10-22T10:14:09.518Z,17.00
2022-10-22T10:19:36.137Z,15.94
2022-10-22T10:24:58.666Z,17.05
2022-10-22T10:30:07.033Z,17.24
2022-10-22T10:35:22.865Z,15.86
2022-10-22T10:40:32.861Z,15.28
2022-10-22T10:45:48.862Z,16.27
2022-10-22T10:51:04.230Z,17.41
2022-10-22T10:56:20.736Z,14.95
2022-10-22T11:01:29.692Z,15.80
2022-10-22T11:06:35.265Z,17.19
2022-10-22T11:11:45.217Z,17.38
2022-10-22T11:17:01.729Z,17.26
2022-10-22T11:22:15.594Z,16.80
2022-10-22T11:27:26.283Z,17.57
2022-10-22T11:32:31.905Z,17.27
2022-10-22T11:37:40.687Z,17.64
2022-10-22T11:42:48.916Z,17.55
2022-10-22T11:47:59.388Z,17.45
2022-10-22T11:53:27.322Z,17.68
2022-10-22T11:58:42.325Z,17.71
2022-10-22T12:03:53.282Z,17.78
2022-10-22T12:09:01.170Z,17.83
2022-10-22T12:14:18.835Z,18.02
2022-10-22T12:19:37.374Z,17.91
2022-10-22T12:24:42.609Z,16.24
2022-10-22T12:29:45.227Z,16.52
2022-10-22T12:34:56.274Z,16.97
2022-10-22T12:40:01.051Z,17.70
2022-10-22T12:45:04.054Z,18.19
2022-10-22T12:50:21.864Z,18.37
2022-10-22T12:55:30.883Z,18.56
2022-10-22T13:00:45.742Z,17.27
2022-10-22T13:05:51.903Z,16.57
2022-10-22T13:11:09.349Z,17.09
2022-10-22T13:16:27.055Z,18.66
2022-10-22T13:21:42.909Z,18.69
2022-10-22T13:26:56.992Z,18.07
2022-10-22T13:32:53.819Z,17.16
2022-10-22T13:38:21.750Z,16.95
2022-10-22T13:43:28.491Z,17.04
2022-10-22T13:49:04.163Z,16.88
2022-10-22T13:54:20.103Z,17.60
2022-10-22T14:05:04.947Z,17.20
2022-10-22T14:10:35.193Z,18.25
2022-10-22T14:26:59.156Z,15.98
2022-10-22T14:32:06.418Z,17.63
2022-10-22T14:37:19.133Z,18.19
2022-10-22T14:42:31.769Z,16.05
2022-10-22T14:53:14.334Z,17.35
2022-10-22T14:58:50.218Z,16.91
2022-10-22T15:04:01.982Z,15.79
2022-10-22T15:09:26.351Z,17.88
2022-10-22T15:14:41.434Z,17.04
2022-10-22T15:19:45.161Z,15.08
2022-10-22T15:24:53.957Z,16.37
2022-10-22T15:29:59.439Z,17.36
2022-10-22T15:35:02.874Z,17.73
2022-10-22T15:40:08.093Z,17.69
2022-10-22T15:45:12.527Z,16.29
2022-10-22T15:50:17.771Z,16.94
2022-10-22T15:55:20.821Z,17.39
2022-10-22T16:00:25.129Z,16.51
2022-10-22T16:05:31.135Z,17.20
2022-10-22T16:10:36.395Z,16.70
2022-10-22T16:15:40.726Z,16.02
2022-10-22T16:20:44.099Z,16.25
2022-10-22T16:25:47.296Z,16.53
2022-10-22T16:30:51.494Z,15.44
2022-10-22T16:36:01.037Z,15.55
2022-10-22T16:41:12.931Z,16.11
2022-10-22T16:46:19.004Z,15.53
2022-10-22T16:51:24.264Z,16.19
2022-10-22T16:56:28.203Z,16.18
2022-10-22T17:01:35.682Z,16.00
2022-10-22T17:06:45.322Z,15.67
2022-10-22T17:11:48.065Z,15.57
2022-10-22T17:16:53.829Z,16.02
2022-10-22T17:21:56.483Z,15.80
2022-10-22T17:26:59.195Z,15.69
2022-10-22T17:32:04.028Z,15.79
2022-10-22T17:37:06.639Z,15.33
2022-10-22T17:42:09.360Z,15.71
2022-10-22T17:47:14.937Z,15.43
2022-10-22T17:52:18.037Z,15.38
2022-10-22T17:57:20.792Z,15.60
2022-10-22T18:02:24.767Z,15.13
2022-10-22T18:07:27.454Z,14.77
2022-10-22T18:12:30.127Z,15.35
2022-10-22T18:17:37.152Z,15.28
2022-10-22T18:22:42.300Z,15.03
2022-10-22T18:27:45.895Z,15.21
2022-10-22T18:32:51.667Z,15.19
2022-10-22T18:37:54.410Z,15.11
2022-10-22T18:42:57.122Z,14.86
2022-10-22T18:48:01.193Z,13.94
2022-10-22T18:53:04.935Z,14.97
2022-10-22T18:58:26.848Z,14.82
2022-10-22T19:03:38.332Z,14.17
2022-10-22T19:08:44.834Z,14.06
2022-10-22T19:13:48.718Z,14.72
2022-10-22T19:18:54.592Z,14.21
2022-10-22T19:23:57.722Z,14.29
2022-10-22T19:29:01.247Z,13.46
2022-10-22T19:34:05.869Z,14.08
2022-10-22T19:39:08.894Z,14.57
2022-10-22T19:44:11.727Z,14.48
2022-10-22T19:49:19.074Z,14.36
2022-10-22T19:54:25.018Z,14.38
2022-10-22T19:59:29.998Z,14.30
2022-10-22T20:04:38.757Z,14.13
2022-10-22T20:09:42.315Z,13.76
2022-10-22T20:14:45.012Z,14.26
2022-10-22T20:19:51.671Z,13.27
2022-10-22T20:24:56.601Z,13.30
2022-10-22T20:30:02.608Z,14.36
2022-10-22T20:35:10.650Z,13.57
2022-10-22T20:40:14.019Z,14.30
2022-10-22T20:45:16.984Z,13.96
2022-10-22T20:50:24.071Z,14.44
2022-10-22T20:55:27.252Z,14.07
2022-10-22T21:00:35.569Z,14.50
2022-10-22T21:05:39.754Z,14.58
2022-10-22T21:10:42.553Z,14.35
2022-10-22T21:15:45.480Z,14.61
2022-10-22T21:20:49.742Z,14.64
2022-10-22T21:25:55.980Z,14.61
2022-10-22T21:30:59.244Z,14.61
2022-10-22T21:36:03.242Z,14.58
2022-10-22T21:41:07.095Z,14.57
2022-10-22T21:46:12.250Z,14.13
2022-10-22T21:51:22.434Z,14.65
2022-10-22T21:56:26.993Z,14.61
2022-10-22T22:01:30.462Z,14.23
2022-10-22T22:06:35.328Z,14.62
2022-10-22T22:11:39.284Z,14.66
2022-10-22T22:16:42.011Z,14.72
2022-10-22T22:21:45.969Z,14.07
2022-10-22T22:26:49.132Z,14.62
2022-10-22T22:31:51.754Z,14.75
2022-10-22T22:36:55.767Z,14.19
2022-10-22T22:41:58.485Z,14.74
2022-10-22T22:47:01.193Z,14.80
2022-10-22T22:52:05.820Z,14.53
2022-10-22T22:57:08.412Z,14.89
2022-10-22T23:02:11.119Z,14.07
2022-10-22T23:07:15.225Z,14.90
2022-10-22T23:12:17.814Z,14.44
2022-10-22T23:17:23.201Z,14.66
2022-10-22T23:22:27.273Z,14.86
2022-10-22T23:27:30.317Z,14.48
2022-10-22T23:32:38.742Z,14.10
2022-10-22T23:37:43.041Z,14.75
2022-10-22T23:42:55.709Z,14.88
2022-10-22T23:47:58.717Z,14.86
2022-10-22T23:53:10.435Z,14.86
2022-10-22T23:58:13.517Z,14.80
